createdAt,value
2022-12-08T00:18:37.445Z,34
2022-12-08T00:47:47.691Z,31
2022-12-08T01:16:54.502Z,33
2022-12-08T01:45:51.739Z,33
2022-12-08T02:15:05.409Z,37
2022-12-08T02:44:03.234Z,41
2022-12-08T03:13:18.518Z,40
2022-12-08T03:42:29.249Z,40
2022-12-08T04:11:53.486Z,36
2022-12-08T04:41:16.533Z,36
2022-12-08T05:10:39.347Z,35
2022-12-08T05:40:05.501Z,33
2022-12-08T06:09:03.161Z,36
2022-12-08T06:38:24.189Z,36
2022-12-08T07:07:41.227Z,39
2022-12-08T07:36:58.612Z,39
2022-12-08T08:06:19.134Z,35
2022-12-08T08:35:39.940Z,37
2022-12-08T09:05:00.133Z,37
2022-12-08T09:34:12.937Z,37
2022-12-08T10:03:34.871Z,44
2022-12-08T10:32:46.843Z,40
2022-12-08T11:01:52.456Z,40
2022-12-08T11:30:58.533Z,36
2022-12-08T12:00:08.213Z,33
2022-12-08T12:29:12.488Z,32
2022-12-08T12:58:31.045Z,28
2022-12-08T13:27:47.425Z,28
2022-12-08T13:57:10.393Z,27
2022-12-08T14:25:48.246Z,27
2022-12-08T14:55:01.173Z,28
2022-12-08T15:24:10.888Z,28
2022-12-08T15:53:16.994Z,26
2022-12-08T16:51:04.529Z,31
2022-12-08T17:20:13.829Z,39
2022-12-08T17:49:29.657Z,39
2022-12-08T18:18:37.110Z,55
2022-12-08T18:47:54.310Z,36
2022-12-08T19:17:14.553Z,35
2022-12-08T19:46:37.323Z,39
2022-12-08T20:15:18.618Z,52
2022-12-08T20:44:36.165Z,68
2022-12-08T21:13:48.230Z,52
2022-12-08T21:42:53.501Z,44
2022-12-08T22:11:54.276Z,42
2022-12-08T22:41:03.001Z,44
2022-12-08T23:10:10.612Z,36
2022-12-08T23:38:59.801Z,38
